• Join FlightAware (Why Join?)
  • Login
  • US Flag 
05:26AM EST


 

Airport Tracker/Info


-or-


 

Live Flight TrackerFlight Track Log ✈ N896P ✈ 11-Jun-2013 ✈ KFTW - KSHR

Flight Track Log - Related Links

Times and Time Zones

All times are in EDT time to prevent confusion due to time zone crossing. See the N896P flight status page for this flight to view local times or setup timezone preferences in your user account.

Time Position Orientation Groundspeed Altitude Reporting Facility
EDT Latitude Longitude Course Direction KTS MPH feet Rate Location/Type
11:44PM 35.3125 -99.0754 331° Northwest  Level Estimated
11:45PM 35.3980 -99.1363 330° Northwest  Level Estimated
11:46PM 35.4835 -99.1973 330° Northwest  Level Estimated
11:47PM 35.5689 -99.2585 330° Northwest  Level Estimated
11:48PM 35.6544 -99.3198 330° Northwest  Level Estimated
11:49PM 35.7403 -99.3816 330° Northwest  Level Estimated
11:50PM 35.8262 -99.4436 330° Northwest  Level Estimated
11:51PM 35.9121 -99.5057 330° Northwest  Level Estimated
11:52PM 35.9979 -99.5679 330° Northwest  Level Estimated
11:53PM 36.0837 -99.6302 330° Northwest  Level Estimated
11:54PM 36.1695 -99.6927 330° Northwest  Level Estimated
11:55PM 36.2552 -99.7553 330° Northwest  Level Estimated
11:56PM 36.3409 -99.8181 329° Northwest  Level Estimated
11:57PM 36.4266 -99.8810 329° Northwest  Level Estimated
11:58PM 36.5122 -99.9441 329° Northwest  Level Estimated
11:59PM 36.5978 -100.0072 329° Northwest  Level Estimated
12:00AM 36.6834 -100.0706 329° Northwest  Level Estimated
12:01AM 36.7690 -100.1340 329° Northwest  Level Estimated
12:02AM 36.8545 -100.1976 329° Northwest  Level Estimated
12:03AM 36.9409 -100.2622 329° Northwest  Level Estimated
12:04AM 37.0274 -100.3268 329° Northwest  Level Estimated
12:05AM 37.1138 -100.3916 329° Northwest  Level Estimated
12:06AM 37.2002 -100.4566 329° Northwest  Level Estimated
12:07AM 37.2866 -100.5217 329° Northwest  Level Estimated
12:08AM 37.3729 -100.5869 329° Northwest  Level Estimated
12:09AM 37.4592 -100.6523 329° Northwest  Level Estimated
12:10AM 37.5454 -100.7179 329° Northwest  Level Estimated
12:11AM 37.6312 -100.7833 329° Northwest  Level Estimated
12:12AM 37.7169 -100.8488 329° Northwest  Level Estimated
12:13AM 37.8027 -100.9145 329° Northwest  Level Estimated
12:14AM 37.8884 -100.9803 329° Northwest  Level Estimated
12:15AM 37.9740 -101.0463 329° Northwest  Level Estimated
12:16AM 38.0596 -101.1125 329° Northwest  Level Estimated
12:17AM 38.1452 -101.1788 329° Northwest  Level Estimated
12:18AM 38.2307 -101.2452 329° Northwest  Level Estimated
12:19AM 38.3162 -101.3119 329° Northwest  Level Estimated
12:20AM 38.4017 -101.3786 329° Northwest  Level Estimated
12:21AM 38.4871 -101.4456 328° Northwest  Level Estimated
12:22AM 38.5725 -101.5127 328° Northwest  Level Estimated
12:23AM 38.6578 -101.5799 328° Northwest  Level Estimated
12:24AM 38.7431 -101.6473 328° Northwest  Level Estimated
12:25AM 38.8284 -101.7149 328° Northwest  Level Estimated
12:26AM 38.9129 -101.7821 328° Northwest  Level Estimated
12:27AM 38.9974 -101.8494 328° Northwest  Level Estimated
12:28AM 39.0818 -101.9169 328° Northwest  Level Estimated
12:29AM 39.1662 -101.9845 328° Northwest  Level Estimated
12:30AM 39.2506 -102.0523 328° Northwest  Level Estimated
12:31AM 39.3349 -102.1203 328° Northwest  Level Estimated
12:32AM 39.4192 -102.1885 328° Northwest  Level Estimated
12:33AM 39.5042 -102.2574 328° Northwest  Level Estimated
12:34AM 39.5891 -102.3265 328° Northwest  Level Estimated
12:35AM 39.6735 -102.3953 328° Northwest  Level Estimated
12:36AM 39.7577 -102.4642 328° Northwest  Level Estimated
12:37AM 39.8419 -102.5333 328° Northwest  Level Estimated
12:38AM 39.9261 -102.6026 328° Northwest  Level Estimated
12:39AM 40.0103 -102.6720 328° Northwest  Level Estimated
12:40AM 40.0944 -102.7416 328° Northwest  Level Estimated
12:41AM 40.1785 -102.8114 328° Northwest  Level Estimated
12:42AM 40.2625 -102.8814 328° Northwest  Level Estimated
12:43AM 40.3465 -102.9515 328° Northwest  Level Estimated
12:44AM 40.4308 -103.0221 327° Northwest  Level Estimated
12:45AM 40.5151 -103.0929 327° Northwest  Level Estimated
12:46AM 40.5994 -103.1640 327° Northwest  Level Estimated
12:47AM 40.6836 -103.2352 327° Northwest  Level Estimated
12:48AM 40.7678 -103.3065 327° Northwest  Level Estimated
12:49AM 40.8519 -103.3781 327° Northwest  Level Estimated
12:50AM 40.9360 -103.4498 327° Northwest  Level Estimated
12:51AM 41.0193 -103.5211 327° Northwest  Level Estimated
12:52AM 41.1026 -103.5926 327° Northwest  Level Estimated
12:53AM 41.1858 -103.6642 327° Northwest  Level Estimated
12:54AM 41.2690 -103.7361 327° Northwest  Level Estimated
12:55AM 41.3528 -103.8086 327° Northwest  Level Estimated
12:56AM 41.4365 -103.8814 327° Northwest  Level Estimated
12:57AM 41.5202 -103.9544 327° Northwest  Level Estimated
12:58AM 41.6039 -104.0275 327° Northwest  Level Estimated
12:59AM 41.6875 -104.1009 327° Northwest  Level Estimated
01:00AM 41.7711 -104.1744 327° Northwest  Level Estimated
01:01AM 41.8546 -104.2482 327° Northwest  Level Estimated
01:02AM 41.9381 -104.3221 327° Northwest  Level Estimated
01:03AM 42.0215 -104.3962 327° Northwest  Level Estimated
01:03AM 41.7294 -104.6475 326° Northwest 394 453 45,000  Level Denver Center
01:04AM 42.1049 -104.4705 327° Northwest  Level Estimated
01:04AM 41.8231 -104.7167 331° Northwest 399 459 45,000  Level Denver Center
01:05AM 42.1879 -104.5447 326° Northwest  Level Estimated
01:05AM 41.9161 -104.7869 331° Northwest 400 460 45,000  Level Denver Center
01:06AM 42.2708 -104.6191 326° Northwest  Level Estimated
01:06AM 42.0258 -104.8706 330° Northwest 405 466 45,000  Level Denver Center
01:07AM 42.3537 -104.6937 326° Northwest  Level Estimated
01:07AM 42.1194 -104.9433 330° Northwest 404 465 45,000  Level Denver Center
01:08AM 42.4366 -104.7685 326° Northwest  Level Estimated
01:08AM 42.2131 -105.0161 330° Northwest 404 465 45,000  Level Denver Center
01:09AM 42.3225 -105.1011 330° Northwest 403 464 45,000  Level Denver Center
01:10AM 42.4164 -105.1728 331° Northwest 403 464 45,000  Level Denver Center
01:11AM 42.5108 -105.2464 330° Northwest 406 467 45,000  Level Denver Center
01:12AM 42.6047 -105.3192 330° Northwest 405 466 45,000  Level Denver Center
01:13AM 42.7144 -105.4067 330° Northwest 406 467 45,000 -480 Level Denver Center
01:14AM 42.8094 -105.4772 331° Northwest 406 467 44,100 -1,560 Descending Denver Center
01:15AM 42.8992 -105.5492 330° Northwest 394 453 41,900 -2,400 Descending Denver Center
01:16AM 43.0042 -105.6308 330° Northwest 391 450 39,300 -2,400 Descending Denver Center
01:17AM 43.0925 -105.7019 330° Northwest 386 444 37,100 -2,220 Descending Denver Center
01:18AM 43.1786 -105.7728 329° Northwest 381 438 34,900 -2,220 Descending Denver Center
01:19AM 43.2683 -105.8444 330° Northwest 388 447 32,700 -2,400 Descending Denver Center
01:20AM 43.3728 -105.9269 330° Northwest 389 448 30,100 -2,400 Descending Denver Center
01:21AM 43.4633 -105.9997 330° Northwest 393 452 27,900 -2,040 Descending Denver Center
01:23AM 43.5539 -106.0708 330° Northwest 392 451 25,700 -2,400 Descending Denver Center
01:23AM 43.6361 -106.1389 329° Northwest 368 423 23,400 -2,640 Descending Salt Lake Center
01:24AM 43.7122 -106.2017 329° Northwest 340 391 21,300 -2,340 Descending Salt Lake Center
01:25AM 43.8006 -106.2736 330° Northwest 334 384 18,700 -2,100 Descending Salt Lake Center
01:26AM 43.8786 -106.3358 330° Northwest 337 388 17,100 -1,380 Descending Salt Lake Center
01:27AM 43.9497 -106.3911 331° Northwest 323 372 16,000 -1,020 Descending Salt Lake Center
01:28AM 43.9714 -106.4083 330° Northwest 313 360 15,800 -1,020 Descending Denver Center
01:29AM 44.0411 -106.4658 329° Northwest 307 353 14,700 -1,080 Descending Denver Center
01:30AM 44.1244 -106.5303 331° Northwest 307 353 13,700 -1,260 Descending Denver Center
01:30AM 44.1703 -106.5694 328° Northwest 304 350 12,600 -1,560 Descending Salt Lake Center
01:33AM 44.3403 -106.6794 331° Northwest  Level FlightAware Approximate
01:40AM 44.7667 -106.9667 335° Northwest  Level FlightAware Approximate
01:41AM 44.7692 -106.9803 335° Northwest  Level Estimated
01:42AM 44.7692 -106.9803 335° Northwest  Level Estimated